sensor_id;sensor_type;location;lat;lon;timestamp;temperature;humidity
71304;DHT22;59091;47.446;19.148;2023-04-08T00:02:15;6.91;76.58
71304;DHT22;59091;47.446;19.148;2023-04-08T00:04:41;6.95;76.74
71304;DHT22;59091;47.446;19.148;2023-04-08T00:07:06;6.84;76.63
71304;DHT22;59091;47.446;19.148;2023-04-08T00:09:32;6.85;76.60
71304;DHT22;59091;47.446;19.148;2023-04-08T00:11:57;6.82;76.45
71304;DHT22;59091;47.446;19.148;2023-04-08T00:14:23;6.87;76.40
71304;DHT22;59091;47.446;19.148;2023-04-08T00:16:48;6.85;76.64
71304;DHT22;59091;47.446;19.148;2023-04-08T00:19:13;6.91;76.33
71304;DHT22;59091;47.446;19.148;2023-04-08T00:21:39;6.71;77.26
71304;DHT22;59091;47.446;19.148;2023-04-08T00:24:05;6.61;77.13
71304;DHT22;59091;47.446;19.148;2023-04-08T00:26:31;6.69;77.29
71304;DHT22;59091;47.446;19.148;2023-04-08T00:28:57;6.79;77.12
71304;DHT22;59091;47.446;19.148;2023-04-08T00:31:22;6.74;77.33
71304;DHT22;59091;47.446;19.148;2023-04-08T00:33:48;6.71;77.39
71304;DHT22;59091;47.446;19.148;2023-04-08T00:36:13;6.82;77.11
71304;DHT22;59091;47.446;19.148;2023-04-08T00:38:38;6.81;77.07
71304;DHT22;59091;47.446;19.148;2023-04-08T00:41:04;6.84;76.98
71304;DHT22;59091;47.446;19.148;2023-04-08T00:43:30;6.81;76.89
71304;DHT22;59091;47.446;19.148;2023-04-08T00:45:55;6.69;77.17
71304;DHT22;59091;47.446;19.148;2023-04-08T00:48:21;6.71;77.15
71304;DHT22;59091;47.446;19.148;2023-04-08T00:50:46;6.78;77.06
71304;DHT22;59091;47.446;19.148;2023-04-08T00:53:17;6.72;77.31
71304;DHT22;59091;47.446;19.148;2023-04-08T00:55:42;6.72;77.47
71304;DHT22;59091;47.446;19.148;2023-04-08T00:58:08;6.57;77.31
71304;DHT22;59091;47.446;19.148;2023-04-08T01:00:36;6.45;77.65
71304;DHT22;59091;47.446;19.148;2023-04-08T01:03:28;6.27;78.08
71304;DHT22;59091;47.446;19.148;2023-04-08T01:06:30;6.20;78.34
71304;DHT22;59091;47.446;19.148;2023-04-08T01:08:54;6.27;78.43
71304;DHT22;59091;47.446;19.148;2023-04-08T01:11:19;6.36;78.36
71304;DHT22;59091;47.446;19.148;2023-04-08T01:13:46;6.26;78.53
71304;DHT22;59091;47.446;19.148;2023-04-08T01:16:15;6.36;77.99
71304;DHT22;59091;47.446;19.148;2023-04-08T01:18:43;6.14;78.80
71304;DHT22;59091;47.446;19.148;2023-04-08T01:21:10;6.18;79.03
71304;DHT22;59091;47.446;19.148;2023-04-08T01:23:43;6.17;78.99
71304;DHT22;59091;47.446;19.148;2023-04-08T01:26:12;6.14;79.02
71304;DHT22;59091;47.446;19.148;2023-04-08T01:28:48;6.23;79.15
71304;DHT22;59091;47.446;19.148;2023-04-08T01:31:15;6.27;79.26
71304;DHT22;59091;47.446;19.148;2023-04-08T01:33:42;6.30;79.19
71304;DHT22;59091;47.446;19.148;2023-04-08T01:36:09;6.38;78.94
71304;DHT22;59091;47.446;19.148;2023-04-08T01:38:35;6.38;78.72
71304;DHT22;59091;47.446;19.148;2023-04-08T01:41:03;6.31;78.50
71304;DHT22;59091;47.446;19.148;2023-04-08T01:43:30;6.38;78.67
71304;DHT22;59091;47.446;19.148;2023-04-08T01:45:58;6.23;78.88
71304;DHT22;59091;47.446;19.148;2023-04-08T01:48:26;6.31;78.82
71304;DHT22;59091;47.446;19.148;2023-04-08T01:50:52;6.31;79.20
71304;DHT22;59091;47.446;19.148;2023-04-08T01:53:18;6.30;79.10
71304;DHT22;59091;47.446;19.148;2023-04-08T01:55:44;6.20;79.13
71304;DHT22;59091;47.446;19.148;2023-04-08T01:58:16;6.27;78.94
71304;DHT22;59091;47.446;19.148;2023-04-08T02:00:43;6.33;79.00
71304;DHT22;59091;47.446;19.148;2023-04-08T02:03:11;6.26;79.38
71304;DHT22;59091;47.446;19.148;2023-04-08T02:05:36;6.30;79.21
71304;DHT22;59091;47.446;19.148;2023-04-08T02:08:03;6.14;79.70
71304;DHT22;59091;47.446;19.148;2023-04-08T02:10:28;6.21;79.66
71304;DHT22;59091;47.446;19.148;2023-04-08T02:12:54;6.26;79.72
71304;DHT22;59091;47.446;19.148;2023-04-08T02:15:20;6.23;79.62
71304;DHT22;59091;47.446;19.148;2023-04-08T02:17:49;6.26;79.30
71304;DHT22;59091;47.446;19.148;2023-04-08T02:20:26;6.33;79.06
71304;DHT22;59091;47.446;19.148;2023-04-08T02:23:06;6.38;79.21
71304;DHT22;59091;47.446;19.148;2023-04-08T02:25:35;6.44;79.15
71304;DHT22;59091;47.446;19.148;2023-04-08T02:28:05;6.41;79.02
71304;DHT22;59091;47.446;19.148;2023-04-08T02:30:34;6.49;78.96
71304;DHT22;59091;47.446;19.148;2023-04-08T02:33:01;6.40;79.17
71304;DHT22;59091;47.446;19.148;2023-04-08T02:35:27;6.36;79.44
71304;DHT22;59091;47.446;19.148;2023-04-08T02:37:53;6.37;79.22
71304;DHT22;59091;47.446;19.148;2023-04-08T02:40:23;6.42;78.95
71304;DHT22;59091;47.446;19.148;2023-04-08T02:42:49;6.44;79.58
71304;DHT22;59091;47.446;19.148;2023-04-08T02:45:15;6.28;79.95
71304;DHT22;59091;47.446;19.148;2023-04-08T02:47:41;6.31;79.85
71304;DHT22;59091;47.446;19.148;2023-04-08T02:50:07;6.24;79.85
71304;DHT22;59091;47.446;19.148;2023-04-08T02:52:32;6.07;80.19
71304;DHT22;59091;47.446;19.148;2023-04-08T02:54:57;6.17;80.14
71304;DHT22;59091;47.446;19.148;2023-04-08T02:57:23;6.09;80.28
71304;DHT22;59091;47.446;19.148;2023-04-08T02:59:48;6.09;80.55
71304;DHT22;59091;47.446;19.148;2023-04-08T03:02:14;6.16;80.31
71304;DHT22;59091;47.446;19.148;2023-04-08T03:04:39;6.03;80.46
71304;DHT22;59091;47.446;19.148;2023-04-08T03:07:05;6.18;80.19
71304;DHT22;59091;47.446;19.148;2023-04-08T03:09:31;6.20;80.14
71304;DHT22;59091;47.446;19.148;2023-04-08T03:11:56;6.21;80.18
71304;DHT22;59091;47.446;19.148;2023-04-08T03:14:21;6.24;79.95
71304;DHT22;59091;47.446;19.148;2023-04-08T03:16:47;6.21;79.93
71304;DHT22;59091;47.446;19.148;2023-04-08T03:19:12;6.18;79.88
71304;DHT22;59091;47.446;19.148;2023-04-08T03:21:38;6.17;79.96
71304;DHT22;59091;47.446;19.148;2023-04-08T03:24:03;6.03;80.38
71304;DHT22;59091;47.446;19.148;2023-04-08T03:26:29;6.06;80.68
71304;DHT22;59091;47.446;19.148;2023-04-08T03:28:55;6.10;80.65
71304;DHT22;59091;47.446;19.148;2023-04-08T03:31:20;6.24;80.14
71304;DHT22;59091;47.446;19.148;2023-04-08T03:33:46;6.24;80.08
71304;DHT22;59091;47.446;19.148;2023-04-08T03:36:11;6.10;80.58
71304;DHT22;59091;47.446;19.148;2023-04-08T03:38:37;6.16;80.38
71304;DHT22;59091;47.446;19.148;2023-04-08T03:41:02;6.20;80.21
71304;DHT22;59091;47.446;19.148;2023-04-08T03:43:27;6.02;80.74
71304;DHT22;59091;47.446;19.148;2023-04-08T03:45:54;6.06;80.60
71304;DHT22;59091;47.446;19.148;2023-04-08T03:48:20;6.13;80.39
71304;DHT22;59091;47.446;19.148;2023-04-08T03:50:45;6.20;80.27
71304;DHT22;59091;47.446;19.148;2023-04-08T03:53:11;6.07;80.27
71304;DHT22;59091;47.446;19.148;2023-04-08T03:55:37;6.17;80.31
71304;DHT22;59091;47.446;19.148;2023-04-08T03:58:03;6.16;80.32
71304;DHT22;59091;47.446;19.148;2023-04-08T04:00:28;6.13;80.22
71304;DHT22;59091;47.446;19.148;2023-04-08T04:02:54;6.18;80.15
71304;DHT22;59091;47.446;19.148;2023-04-08T04:05:20;6.09;80.39
71304;DHT22;59091;47.446;19.148;2023-04-08T04:07:45;6.13;80.38
71304;DHT22;59091;47.446;19.148;2023-04-08T04:10:11;6.16;80.50
71304;DHT22;59091;47.446;19.148;2023-04-08T04:12:36;6.13;80.54
71304;DHT22;59091;47.446;19.148;2023-04-08T04:15:02;6.10;80.76
71304;DHT22;59091;47.446;19.148;2023-04-08T04:17:28;6.07;80.40
71304;DHT22;59091;47.446;19.148;2023-04-08T04:19:53;6.14;80.19
71304;DHT22;59091;47.446;19.148;2023-04-08T04:22:19;6.02;80.36
71304;DHT22;59091;47.446;19.148;2023-04-08T04:24:48;6.00;80.29
71304;DHT22;59091;47.446;19.148;2023-04-08T04:27:16;5.93;80.52
71304;DHT22;59091;47.446;19.148;2023-04-08T04:29:42;5.87;80.78
71304;DHT22;59091;47.446;19.148;2023-04-08T04:32:08;5.95;80.47
71304;DHT22;59091;47.446;19.148;2023-04-08T04:34:34;5.92;80.74
71304;DHT22;59091;47.446;19.148;2023-04-08T04:36:59;5.96;80.71
71304;DHT22;59091;47.446;19.148;2023-04-08T04:39:25;5.97;80.55
71304;DHT22;59091;47.446;19.148;2023-04-08T04:41:50;5.96;80.75
71304;DHT22;59091;47.446;19.148;2023-04-08T04:44:16;6.06;80.43
71304;DHT22;59091;47.446;19.148;2023-04-08T04:46:41;6.17;80.19
71304;DHT22;59091;47.446;19.148;2023-04-08T04:49:07;6.06;80.53
71304;DHT22;59091;47.446;19.148;2023-04-08T04:51:32;6.10;80.09
71304;DHT22;59091;47.446;19.148;2023-04-08T04:53:58;6.10;80.20
71304;DHT22;59091;47.446;19.148;2023-04-08T04:56:23;6.20;80.17
71304;DHT22;59091;47.446;19.148;2023-04-08T04:58:50;5.99;80.20
71304;DHT22;59091;47.446;19.148;2023-04-08T05:01:16;6.00;80.01
71304;DHT22;59091;47.446;19.148;2023-04-08T05:03:41;6.10;80.07
71304;DHT22;59091;47.446;19.148;2023-04-08T05:06:07;6.13;80.01
71304;DHT22;59091;47.446;19.148;2023-04-08T05:08:32;6.13;79.81
71304;DHT22;59091;47.446;19.148;2023-04-08T05:10:57;5.99;80.35
71304;DHT22;59091;47.446;19.148;2023-04-08T05:13:29;6.17;79.85
71304;DHT22;59091;47.446;19.148;2023-04-08T05:15:54;6.17;80.14
71304;DHT22;59091;47.446;19.148;2023-04-08T05:18:20;6.17;79.89
71304;DHT22;59091;47.446;19.148;2023-04-08T05:20:45;6.24;79.68
71304;DHT22;59091;47.446;19.148;2023-04-08T05:23:11;6.23;79.49
71304;DHT22;59091;47.446;19.148;2023-04-08T05:25:37;6.28;79.44
71304;DHT22;59091;47.446;19.148;2023-04-08T05:28:03;6.21;79.44
71304;DHT22;59091;47.446;19.148;2023-04-08T05:30:28;6.36;78.83
71304;DHT22;59091;47.446;19.148;2023-04-08T05:32:54;6.14;79.58
71304;DHT22;59091;47.446;19.148;2023-04-08T05:35:19;6.02;79.79
71304;DHT22;59091;47.446;19.148;2023-04-08T05:37:45;6.16;79.22
71304;DHT22;59091;47.446;19.148;2023-04-08T05:40:10;6.20;79.24
71304;DHT22;59091;47.446;19.148;2023-04-08T05:42:36;6.21;79.21
71304;DHT22;59091;47.446;19.148;2023-04-08T05:45:02;6.09;79.55
71304;DHT22;59091;47.446;19.148;2023-04-08T05:47:27;6.14;79.23
71304;DHT22;59091;47.446;19.148;2023-04-08T05:49:52;6.24;80.48
71304;DHT22;59091;47.446;19.148;2023-04-08T05:52:18;6.30;79.45
71304;DHT22;59091;47.446;19.148;2023-04-08T05:54:43;6.36;79.99
71304;DHT22;59091;47.446;19.148;2023-04-08T05:57:10;6.67;80.76
71304;DHT22;59091;47.446;19.148;2023-04-08T05:59:35;6.58;78.84
71304;DHT22;59091;47.446;19.148;2023-04-08T06:02:01;6.55;78.25
71304;DHT22;59091;47.446;19.148;2023-04-08T06:04:26;6.58;78.33
71304;DHT22;59091;47.446;19.148;2023-04-08T06:06:52;6.52;78.68
71304;DHT22;59091;47.446;19.148;2023-04-08T06:09:17;6.51;78.52
71304;DHT22;59091;47.446;19.148;2023-04-08T06:11:43;6.59;78.26
71304;DHT22;59091;47.446;19.148;2023-04-08T06:14:08;6.48;78.76
71304;DHT22;59091;47.446;19.148;2023-04-08T06:16:33;6.54;78.46
71304;DHT22;59091;47.446;19.148;2023-04-08T06:18:59;6.61;78.30
71304;DHT22;59091;47.446;19.148;2023-04-08T06:21:24;6.67;77.90
71304;DHT22;59091;47.446;19.148;2023-04-08T06:23:50;6.55;78.43
71304;DHT22;59091;47.446;19.148;2023-04-08T06:26:16;6.55;78.54
71304;DHT22;59091;47.446;19.148;2023-04-08T06:28:42;6.51;78.48
71304;DHT22;59091;47.446;19.148;2023-04-08T06:31:07;6.54;78.24
71304;DHT22;59091;47.446;19.148;2023-04-08T06:33:33;6.51;78.28
71304;DHT22;59091;47.446;19.148;2023-04-08T06:36:03;6.51;77.88
71304;DHT22;59091;47.446;19.148;2023-04-08T06:38:29;6.58;78.14
71304;DHT22;59091;47.446;19.148;2023-04-08T06:40:55;6.59;78.33
71304;DHT22;59091;47.446;19.148;2023-04-08T06:43:20;6.61;78.38
71304;DHT22;59091;47.446;19.148;2023-04-08T06:45:46;6.64;78.51
71304;DHT22;59091;47.446;19.148;2023-04-08T06:48:11;6.51;78.59
71304;DHT22;59091;47.446;19.148;2023-04-08T06:50:37;6.55;78.30
71304;DHT22;59091;47.446;19.148;2023-04-08T06:53:02;6.54;78.62
71304;DHT22;59091;47.446;19.148;2023-04-08T06:55:27;6.57;78.76
71304;DHT22;59091;47.446;19.148;2023-04-08T06:57:53;6.57;78.92
71304;DHT22;59091;47.446;19.148;2023-04-08T07:00:18;6.55;78.71
71304;DHT22;59091;47.446;19.148;2023-04-08T07:02:44;6.68;78.77
71304;DHT22;59091;47.446;19.148;2023-04-08T07:05:09;6.58;79.06
71304;DHT22;59091;47.446;19.148;2023-04-08T07:07:35;6.54;78.85
71304;DHT22;59091;47.446;19.148;2023-04-08T07:10:00;6.68;78.66
71304;DHT22;59091;47.446;19.148;2023-04-08T07:12:26;6.65;78.78
71304;DHT22;59091;47.446;19.148;2023-04-08T07:14:51;6.47;78.55
71304;DHT22;59091;47.446;19.148;2023-04-08T07:17:17;6.38;79.30
71304;DHT22;59091;47.446;19.148;2023-04-08T07:19:43;6.47;79.13
71304;DHT22;59091;47.446;19.148;2023-04-08T07:22:08;6.44;79.48
71304;DHT22;59091;47.446;19.148;2023-04-08T07:24:34;6.37;79.59
71304;DHT22;59091;47.446;19.148;2023-04-08T07:26:59;6.51;79.38
71304;DHT22;59091;47.446;19.148;2023-04-08T07:29:25;6.44;79.38
71304;DHT22;59091;47.446;19.148;2023-04-08T07:31:50;6.59;79.41
71304;DHT22;59091;47.446;19.148;2023-04-08T07:34:16;6.67;79.35
71304;DHT22;59091;47.446;19.148;2023-04-08T07:36:41;6.72;79.36
71304;DHT22;59091;47.446;19.148;2023-04-08T07:39:07;6.67;80.01
71304;DHT22;59091;47.446;19.148;2023-04-08T07:41:32;6.68;79.84
71304;DHT22;59091;47.446;19.148;2023-04-08T07:43:57;6.77;79.23
71304;DHT22;59091;47.446;19.148;2023-04-08T07:46:23;6.84;79.01
71304;DHT22;59091;47.446;19.148;2023-04-08T07:48:48;6.72;79.14
71304;DHT22;59091;47.446;19.148;2023-04-08T07:51:14;6.88;78.94
71304;DHT22;59091;47.446;19.148;2023-04-08T07:53:40;6.74;79.55
71304;DHT22;59091;47.446;19.148;2023-04-08T07:56:13;6.87;78.79
71304;DHT22;59091;47.446;19.148;2023-04-08T07:58:39;6.98;78.67
71304;DHT22;59091;47.446;19.148;2023-04-08T08:01:20;6.78;78.83
71304;DHT22;59091;47.446;19.148;2023-04-08T08:03:47;6.87;78.98
71304;DHT22;59091;47.446;19.148;2023-04-08T08:06:13;6.87;79.35
71304;DHT22;59091;47.446;19.148;2023-04-08T08:08:38;6.85;79.30
71304;DHT22;59091;47.446;19.148;2023-04-08T08:11:04;6.89;78.82
71304;DHT22;59091;47.446;19.148;2023-04-08T08:13:30;6.89;78.98
71304;DHT22;59091;47.446;19.148;2023-04-08T08:15:55;6.65;78.83
71304;DHT22;59091;47.446;19.148;2023-04-08T08:18:21;6.52;78.94
71304;DHT22;59091;47.446;19.148;2023-04-08T08:20:46;7.09;82.43
71304;DHT22;59091;47.446;19.148;2023-04-08T08:23:12;6.95;78.43
71304;DHT22;59091;47.446;19.148;2023-04-08T08:25:37;7.00;78.06
71304;DHT22;59091;47.446;19.148;2023-04-08T08:28:03;7.23;77.91
71304;DHT22;59091;47.446;19.148;2023-04-08T08:30:28;7.16;78.88
71304;DHT22;59091;47.446;19.148;2023-04-08T08:32:55;7.09;78.50
71304;DHT22;59091;47.446;19.148;2023-04-08T08:35:23;7.49;80.39
71304;DHT22;59091;47.446;19.148;2023-04-08T08:37:48;7.12;77.36
71304;DHT22;59091;47.446;19.148;2023-04-08T08:40:14;7.13;77.42
71304;DHT22;59091;47.446;19.148;2023-04-08T08:42:40;7.19;76.84
71304;DHT22;59091;47.446;19.148;2023-04-08T08:45:06;7.12;76.96
71304;DHT22;59091;47.446;19.148;2023-04-08T08:47:32;7.18;77.22
71304;DHT22;59091;47.446;19.148;2023-04-08T08:49:57;7.10;77.31
71304;DHT22;59091;47.446;19.148;2023-04-08T08:52:23;7.30;77.41
71304;DHT22;59091;47.446;19.148;2023-04-08T08:54:56;7.40;76.90
71304;DHT22;59091;47.446;19.148;2023-04-08T08:57:22;7.29;76.29
71304;DHT22;59091;47.446;19.148;2023-04-08T08:59:47;7.44;75.75
71304;DHT22;59091;47.446;19.148;2023-04-08T09:02:28;7.29;75.76
71304;DHT22;59091;47.446;19.148;2023-04-08T09:05:01;7.15;75.78
71304;DHT22;59091;47.446;19.148;2023-04-08T09:07:28;7.10;76.14
71304;DHT22;59091;47.446;19.148;2023-04-08T09:09:55;7.24;76.34
71304;DHT22;59091;47.446;19.148;2023-04-08T09:12:21;7.23;76.60
71304;DHT22;59091;47.446;19.148;2023-04-08T09:14:47;7.24;76.68
71304;DHT22;59091;47.446;19.148;2023-04-08T09:17:13;7.16;76.72
71304;DHT22;59091;47.446;19.148;2023-04-08T09:19:39;7.33;76.57
71304;DHT22;59091;47.446;19.148;2023-04-08T09:22:14;7.64;77.45
71304;DHT22;59091;47.446;19.148;2023-04-08T09:24:40;7.81;74.54
71304;DHT22;59091;47.446;19.148;2023-04-08T09:27:05;7.87;73.85
71304;DHT22;59091;47.446;19.148;2023-04-08T09:29:31;7.92;74.07
71304;DHT22;59091;47.446;19.148;2023-04-08T09:31:59;7.88;74.07
71304;DHT22;59091;47.446;19.148;2023-04-08T09:34:25;7.95;74.14
71304;DHT22;59091;47.446;19.148;2023-04-08T09:36:52;7.95;73.34
71304;DHT22;59091;47.446;19.148;2023-04-08T09:39:18;7.94;72.61
71304;DHT22;59091;47.446;19.148;2023-04-08T09:41:47;7.91;72.25
71304;DHT22;59091;47.446;19.148;2023-04-08T09:44:14;8.11;73.01
71304;DHT22;59091;47.446;19.148;2023-04-08T09:49:18;8.12;71.94
71304;DHT22;59091;47.446;19.148;2023-04-08T09:51:53;8.06;72.17
71304;DHT22;59091;47.446;19.148;2023-04-08T09:54:31;8.15;72.20
71304;DHT22;59091;47.446;19.148;2023-04-08T09:57:04;8.03;71.71
71304;DHT22;59091;47.446;19.148;2023-04-08T09:59:33;8.18;72.90
71304;DHT22;59091;47.446;19.148;2023-04-08T10:02:04;8.41;71.70
71304;DHT22;59091;47.446;19.148;2023-04-08T10:04:34;8.09;72.42
71304;DHT22;59091;47.446;19.148;2023-04-08T10:07:03;7.97;71.66
71304;DHT22;59091;47.446;19.148;2023-04-08T10:09:30;8.12;72.64
71304;DHT22;59091;47.446;19.148;2023-04-08T10:11:57;8.16;73.63
71304;DHT22;59091;47.446;19.148;2023-04-08T10:14:22;7.91;73.22
71304;DHT22;59091;47.446;19.148;2023-04-08T10:16:48;7.84;72.65
71304;DHT22;59091;47.446;19.148;2023-04-08T10:19:39;7.81;72.29
71304;DHT22;59091;47.446;19.148;2023-04-08T10:27:40;7.99;72.07
71304;DHT22;59091;47.446;19.148;2023-04-08T10:32:54;8.31;71.77
71304;DHT22;59091;47.446;19.148;2023-04-08T10:35:31;8.21;71.67
71304;DHT22;59091;47.446;19.148;2023-04-08T10:37:57;7.98;73.81
71304;DHT22;59091;47.446;19.148;2023-04-08T10:40:23;7.97;72.79
71304;DHT22;59091;47.446;19.148;2023-04-08T10:42:58;8.13;72.79
71304;DHT22;59091;47.446;19.148;2023-04-08T10:45:24;8.22;72.44
71304;DHT22;59091;47.446;19.148;2023-04-08T10:47:50;8.42;72.35
71304;DHT22;59091;47.446;19.148;2023-04-08T10:50:19;8.59;71.86
71304;DHT22;59091;47.446;19.148;2023-04-08T10:52:49;8.12;70.85
71304;DHT22;59091;47.446;19.148;2023-04-08T10:55:24;8.22;71.79
71304;DHT22;59091;47.446;19.148;2023-04-08T10:57:51;8.36;72.26
71304;DHT22;59091;47.446;19.148;2023-04-08T11:00:18;8.18;70.95
71304;DHT22;59091;47.446;19.148;2023-04-08T11:02:44;8.02;71.53
71304;DHT22;59091;47.446;19.148;2023-04-08T11:05:09;7.91;72.28
71304;DHT22;59091;47.446;19.148;2023-04-08T11:07:41;7.94;72.16
71304;DHT22;59091;47.446;19.148;2023-04-08T11:10:07;8.01;71.99
71304;DHT22;59091;47.446;19.148;2023-04-08T11:12:34;8.16;72.48
71304;DHT22;59091;47.446;19.148;2023-04-08T11:15:02;8.26;72.09
71304;DHT22;59091;47.446;19.148;2023-04-08T11:17:28;8.41;72.09
71304;DHT22;59091;47.446;19.148;2023-04-08T11:19:54;8.46;71.18
71304;DHT22;59091;47.446;19.148;2023-04-08T11:22:21;8.42;70.22
71304;DHT22;59091;47.446;19.148;2023-04-08T11:24:47;8.26;70.96
71304;DHT22;59091;47.446;19.148;2023-04-08T11:27:13;8.38;70.79
71304;DHT22;59091;47.446;19.148;2023-04-08T11:29:40;8.32;70.59
71304;DHT22;59091;47.446;19.148;2023-04-08T11:32:06;8.54;70.94
71304;DHT22;59091;47.446;19.148;2023-04-08T11:34:37;8.41;70.38
71304;DHT22;59091;47.446;19.148;2023-04-08T11:37:03;8.45;70.38
71304;DHT22;59091;47.446;19.148;2023-04-08T11:39:28;8.60;70.64
71304;DHT22;59091;47.446;19.148;2023-04-08T11:41:54;8.70;70.64
71304;DHT22;59091;47.446;19.148;2023-04-08T11:44:29;8.76;76.50
71304;DHT22;59091;47.446;19.148;2023-04-08T11:46:54;8.94;71.78
71304;DHT22;59091;47.446;19.148;2023-04-08T11:49:21;9.00;70.38
71304;DHT22;59091;47.446;19.148;2023-04-08T11:51:55;8.88;68.94
71304;DHT22;59091;47.446;19.148;2023-04-08T11:54:29;8.79;69.09
71304;DHT22;59091;47.446;19.148;2023-04-08T11:56:55;8.91;68.61
71304;DHT22;59091;47.446;19.148;2023-04-08T11:59:22;9.10;69.11
71304;DHT22;59091;47.446;19.148;2023-04-08T12:01:48;9.04;69.37
71304;DHT22;59091;47.446;19.148;2023-04-08T12:04:13;9.04;69.92
71304;DHT22;59091;47.446;19.148;2023-04-08T12:06:39;8.94;68.88
71304;DHT22;59091;47.446;19.148;2023-04-08T12:09:07;8.77;69.46
71304;DHT22;59091;47.446;19.148;2023-04-08T12:11:33;8.66;69.56
71304;DHT22;59091;47.446;19.148;2023-04-08T12:13:59;8.57;70.23
71304;DHT22;59091;47.446;19.148;2023-04-08T12:16:24;8.67;70.14
71304;DHT22;59091;47.446;19.148;2023-04-08T12:18:50;8.60;69.92
71304;DHT22;59091;47.446;19.148;2023-04-08T12:21:15;8.53;69.67
71304;DHT22;59091;47.446;19.148;2023-04-08T12:23:41;8.52;70.42
71304;DHT22;59091;47.446;19.148;2023-04-08T12:26:06;8.39;70.70
71304;DHT22;59091;47.446;19.148;2023-04-08T12:28:32;8.50;71.17
71304;DHT22;59091;47.446;19.148;2023-04-08T12:30:59;8.43;70.80
71304;DHT22;59091;47.446;19.148;2023-04-08T12:33:24;8.53;71.09
71304;DHT22;59091;47.446;19.148;2023-04-08T12:35:50;8.41;70.36
71304;DHT22;59091;47.446;19.148;2023-04-08T12:38:16;8.42;70.81
71304;DHT22;59091;47.446;19.148;2023-04-08T12:40:41;8.66;70.62
71304;DHT22;59091;47.446;19.148;2023-04-08T12:43:07;8.56;70.76
71304;DHT22;59091;47.446;19.148;2023-04-08T12:45:32;8.42;71.13
71304;DHT22;59091;47.446;19.148;2023-04-08T12:47:58;8.42;72.18
71304;DHT22;59091;47.446;19.148;2023-04-08T12:50:23;8.43;72.57
71304;DHT22;59091;47.446;19.148;2023-04-08T12:52:48;8.49;71.64
71304;DHT22;59091;47.446;19.148;2023-04-08T12:55:14;8.49;72.61
71304;DHT22;59091;47.446;19.148;2023-04-08T12:57:40;8.59;72.37
71304;DHT22;59091;47.446;19.148;2023-04-08T13:00:06;8.53;72.00
71304;DHT22;59091;47.446;19.148;2023-04-08T13:02:31;8.90;71.89
71304;DHT22;59091;47.446;19.148;2023-04-08T13:04:57;9.55;83.99
71304;DHT22;59091;47.446;19.148;2023-04-08T13:07:22;9.58;70.61
71304;DHT22;59091;47.446;19.148;2023-04-08T13:09:48;9.59;69.16
71304;DHT22;59091;47.446;19.148;2023-04-08T13:12:13;9.68;70.82
71304;DHT22;59091;47.446;19.148;2023-04-08T13:14:40;9.23;68.74
71304;DHT22;59091;47.446;19.148;2023-04-08T13:17:05;9.27;68.26
71304;DHT22;59091;47.446;19.148;2023-04-08T13:19:31;9.31;69.02
71304;DHT22;59091;47.446;19.148;2023-04-08T13:21:56;9.07;69.72
71304;DHT22;59091;47.446;19.148;2023-04-08T13:24:22;9.32;69.94
71304;DHT22;59091;47.446;19.148;2023-04-08T13:26:47;9.44;67.80
71304;DHT22;59091;47.446;19.148;2023-04-08T13:29:13;9.42;68.68
71304;DHT22;59091;47.446;19.148;2023-04-08T13:31:39;9.44;67.93
71304;DHT22;59091;47.446;19.148;2023-04-08T13:34:05;9.41;67.89
71304;DHT22;59091;47.446;19.148;2023-04-08T13:36:30;9.32;67.77
71304;DHT22;59091;47.446;19.148;2023-04-08T13:38:56;9.38;67.84
71304;DHT22;59091;47.446;19.148;2023-04-08T13:41:22;9.42;68.26
71304;DHT22;59091;47.446;19.148;2023-04-08T13:43:47;9.34;68.41
71304;DHT22;59091;47.446;19.148;2023-04-08T13:46:13;9.44;69.61
71304;DHT22;59091;47.446;19.148;2023-04-08T13:48:38;9.41;69.21
71304;DHT22;59091;47.446;19.148;2023-04-08T13:51:03;9.42;69.55
71304;DHT22;59091;47.446;19.148;2023-04-08T13:53:29;9.30;69.08
71304;DHT22;59091;47.446;19.148;2023-04-08T13:55:55;9.32;68.22
71304;DHT22;59091;47.446;19.148;2023-04-08T13:58:23;9.31;67.99
71304;DHT22;59091;47.446;19.148;2023-04-08T14:00:48;9.32;68.73
71304;DHT22;59091;47.446;19.148;2023-04-08T14:03:15;9.49;68.31
71304;DHT22;59091;47.446;19.148;2023-04-08T14:05:40;9.56;68.62
71304;DHT22;59091;47.446;19.148;2023-04-08T14:08:06;9.61;69.19
71304;DHT22;59091;47.446;19.148;2023-04-08T14:10:31;9.59;68.29
71304;DHT22;59091;47.446;19.148;2023-04-08T14:12:57;9.59;67.17
71304;DHT22;59091;47.446;19.148;2023-04-08T14:15:22;9.52;67.37
71304;DHT22;59091;47.446;19.148;2023-04-08T14:17:47;9.45;67.79
71304;DHT22;59091;47.446;19.148;2023-04-08T14:20:13;9.49;67.80
71304;DHT22;59091;47.446;19.148;2023-04-08T14:22:39;9.24;68.38
71304;DHT22;59091;47.446;19.148;2023-04-08T14:25:06;9.39;73.51
71304;DHT22;59091;47.446;19.148;2023-04-08T14:27:31;9.27;70.34
71304;DHT22;59091;47.446;19.148;2023-04-08T14:29:57;9.05;71.21
71304;DHT22;59091;47.446;19.148;2023-04-08T14:32:22;8.87;71.51
71304;DHT22;59091;47.446;19.148;2023-04-08T14:34:48;8.90;69.91
71304;DHT22;59091;47.446;19.148;2023-04-08T14:37:13;8.76;69.48
71304;DHT22;59091;47.446;19.148;2023-04-08T14:39:39;8.88;70.02
71304;DHT22;59091;47.446;19.148;2023-04-08T14:42:04;9.00;69.61
71304;DHT22;59091;47.446;19.148;2023-04-08T14:44:30;8.93;68.92
71304;DHT22;59091;47.446;19.148;2023-04-08T14:46:55;9.00;67.67
71304;DHT22;59091;47.446;19.148;2023-04-08T14:49:21;9.13;67.57
71304;DHT22;59091;47.446;19.148;2023-04-08T14:51:46;9.13;68.73
71304;DHT22;59091;47.446;19.148;2023-04-08T14:54:12;9.08;68.64
71304;DHT22;59091;47.446;19.148;2023-04-08T14:56:38;9.10;68.97
71304;DHT22;59091;47.446;19.148;2023-04-08T14:59:04;9.17;68.63
71304;DHT22;59091;47.446;19.148;2023-04-08T15:01:30;9.13;69.28
71304;DHT22;59091;47.446;19.148;2023-04-08T15:03:57;9.08;68.63
71304;DHT22;59091;47.446;19.148;2023-04-08T15:06:23;8.85;69.76
71304;DHT22;59091;47.446;19.148;2023-04-08T15:08:50;8.81;69.88
71304;DHT22;59091;47.446;19.148;2023-04-08T15:11:16;8.70;69.81
71304;DHT22;59091;47.446;19.148;2023-04-08T15:13:43;8.83;69.25
71304;DHT22;59091;47.446;19.148;2023-04-08T15:16:09;8.79;68.88
71304;DHT22;59091;47.446;19.148;2023-04-08T15:18:34;8.77;69.40
71304;DHT22;59091;47.446;19.148;2023-04-08T15:21:01;8.90;68.83
71304;DHT22;59091;47.446;19.148;2023-04-08T15:23:26;8.93;68.49
71304;DHT22;59091;47.446;19.148;2023-04-08T15:25:52;9.15;68.00
71304;DHT22;59091;47.446;19.148;2023-04-08T15:28:17;9.10;67.48
71304;DHT22;59091;47.446;19.148;2023-04-08T15:30:42;9.14;67.47
71304;DHT22;59091;47.446;19.148;2023-04-08T15:33:08;8.91;68.27
71304;DHT22;59091;47.446;19.148;2023-04-08T15:35:36;8.93;68.07
71304;DHT22;59091;47.446;19.148;2023-04-08T15:38:02;9.10;69.16